• Join FlightAware (Why Join?)
  • Login
  • US Flag GB Flag 
12:45 EDT


 

Airport Tracker/Info


-or-


 

Live Flight TrackerFlight Track Log ✈ SKW5500 ✈ 01-May-2013 ✈ KLAX - KCOS

Flight Track Log - Related Links

Times and Time Zones

All times are in EDT time to prevent confusion due to time zone crossing. See the SKW5500 flight status page for this flight to view local times or setup timezone preferences in your user account.

Time Position Orientation Groundspeed Altitude Reporting Facility
EDT Latitude Longitude Course Direction KTS MPH feet Rate Location/Type
10:26 33.9333 -118.4558 59° Northeast 189 217 2,300  Level Los Angeles Center
10:27 33.9181 -118.5086 251° West 214 246 4,400 2,340 Climbing Los Angeles Center
10:28 34.1199 -118.0935 59° Northeast  Level FlightAware Approximate
10:28 33.8731 -118.5861 235° Southwest 253 291 7,200  Level Los Angeles Center
10:29 34.1853 -117.9628 59° Northeast  Level FlightAware Approximate
10:29 33.8150 -118.5478 151° Southeast 239 275 9,500  Level Los Angeles Center
10:30 34.2563 -117.8478 68° East  Level FlightAware Approximate
10:30 33.8250 -118.4850 79° East 263 303 11,000  Level Los Angeles Center
10:31 34.3161 -117.7178 59° Northeast  Level FlightAware Approximate
10:31 33.9069 -118.4433 23° Northeast 264 304 13,000  Level Los Angeles Center
10:32 33.9678 -118.3761 42° Northeast 306 352 14,400 1,680 Climbing Los Angeles Center
10:34 34.0267 -118.2706 56° Northeast 315 362 16,500 1,740 Climbing Los Angeles Center
10:35 34.0775 -118.1814 55° Northeast 320 368 18,100 1,200 Climbing Los Angeles Center
10:36 34.1411 -118.0686 56° Northeast 337 388 19,000 540 Climbing Los Angeles Center
10:37 34.2000 -117.9636 56° Northeast 373 429 19,300 420 Climbing Los Angeles Center
10:38 34.2614 -117.8547 56° Northeast 389 448 19,900 540 Climbing Los Angeles Center
10:39 34.3239 -117.7419 56° Northeast 399 459 20,500 540 Climbing Los Angeles Center
10:40 34.3889 -117.6253 56° Northeast 412 474 21,100 540 Climbing Los Angeles Center
10:41 34.4531 -117.5075 57° Northeast 421 484 21,700 540 Climbing Los Angeles Center
10:42 34.5183 -117.3889 56° Northeast 426 490 22,300 600 Climbing Los Angeles Center
10:43 34.5975 -117.2456 56° Northeast 428 493 23,000 600 Climbing Los Angeles Center
10:44 34.6644 -117.1258 56° Northeast 431 496 23,600 540 Climbing Los Angeles Center
10:45 34.7386 -117.0111 52° Northeast 434 499 24,200 540 Climbing Los Angeles Center
10:46 34.8178 -116.9064 47° Northeast 430 495 24,800 540 Climbing Los Angeles Center
10:47 34.8967 -116.7969 49° Northeast 431 496 25,400 600 Climbing Los Angeles Center
10:48 34.9767 -116.6897 48° Northeast 431 496 26,100 660 Climbing Los Angeles Center
10:49 35.0719 -116.5606 48° Northeast 431 496 26,800 600 Climbing Los Angeles Center
10:50 35.1517 -116.4519 48° Northeast 431 496 27,400 540 Climbing Los Angeles Center
10:51 35.2311 -116.3422 48° Northeast 433 498 28,000 540 Climbing Los Angeles Center
10:52 35.3103 -116.2333 48° Northeast 431 496 28,600 540 Climbing Los Angeles Center
10:53 35.3894 -116.1256 48° Northeast 427 491 29,200 540 Climbing Los Angeles Center
10:54 35.4678 -116.0161 49° Northeast 428 493 29,800 600 Climbing Los Angeles Center
10:55 35.5614 -115.8850 49° Northeast 427 491 30,500 540 Climbing Los Angeles Center
10:56 35.6353 -115.7883 47° Northeast 420 483 31,100 540 Climbing Los Angeles Center
10:57 35.7281 -115.6578 49° Northeast 421 484 31,800 660 Climbing Los Angeles Center
10:58 35.7992 -115.5081 60° Northeast 430 495 32,500 540 Climbing Los Angeles Center
10:59 35.8381 -115.3700 71° East 432 497 33,000 240 Climbing Los Angeles Center
11:01 35.8772 -115.2303 71° East 433 498 33,000  Level Los Angeles Center
11:02 35.9078 -115.1156 72° East 441 507 33,000  Level Los Angeles Center
11:03 35.9578 -114.9389 71° East 454 522 33,000  Level Los Angeles Center
11:04 36.0161 -114.7300 71° East 461 531 33,000  Level Los Angeles Center
11:05 36.0500 -114.6083 71° East 466 536 33,000  Level Los Angeles Center
11:06 36.0997 -114.4239 72° East 471 542 33,000  Level Los Angeles Center
11:07 36.1503 -114.2375 71° East 477 549 33,000  Level Los Angeles Center
11:08 36.1931 -114.0833 71° East 475 547 33,000  Level Los Angeles Center
11:09 36.2356 -113.9278 71° East 477 549 33,000  Level Los Angeles Center
11:10 36.2847 -113.7392 72° East 480 552 33,000  Level Los Angeles Center
11:11 36.3272 -113.5831 71° East 479 551 33,000  Level Los Angeles Center
11:12 36.3681 -113.4261 72° East 479 551 33,000  Level Los Angeles Center
11:14 36.4100 -113.2686 72° East 481 554 33,000  Level Los Angeles Center
11:15 36.4617 -113.0722 72° East 482 555 33,000  Level Los Angeles Center
11:16 36.5031 -112.9142 72° East 483 556 33,000  Level Los Angeles Center
11:17 36.5442 -112.7556 72° East 485 558 33,000  Level Los Angeles Center
11:18 36.5936 -112.5647 72° East 486 559 33,000  Level Los Angeles Center
11:19 36.6339 -112.4047 73° East 487 560 33,000  Level Los Angeles Center
11:20 36.6667 -112.2767 72° East 488 562 33,000  Level Los Angeles Center
11:21 36.7147 -112.0844 73° East 488 562 33,000  Level Los Angeles Center
11:21 36.7222 -112.0528 74° East 488 562 33,000  Level Denver Center
11:22 36.7714 -111.8597 72° East 489 563 33,000  Level Denver Center
11:23 36.8203 -111.6636 73° East 494 568 33,000  Level Denver Center
11:24 36.8592 -111.5017 73° East 492 566 33,000  Level Denver Center
11:25 36.8994 -111.3381 73° East 494 568 33,000  Level Denver Center
11:26 36.9406 -111.1719 73° East 500 575 33,000  Level Denver Center
11:27 36.9797 -111.0044 74° East 504 580 33,000  Level Denver Center
11:28 37.0203 -110.8364 73° East 505 581 33,000  Level Denver Center
11:29 37.0683 -110.6339 73° East 509 586 33,000  Level Denver Center
11:30 37.1094 -110.4633 73° East 511 588 33,000  Level Denver Center
11:32 37.1483 -110.2925 74° East 512 589 33,000  Level Denver Center
11:33 37.1939 -110.1008 73° East 512 589 33,000  Level Denver Center
11:34 37.2317 -109.9331 74° East 519 597 33,000  Level Denver Center
11:35 37.2706 -109.7656 74° East 520 598 33,000  Level Denver Center
11:36 37.3147 -109.5694 74° East 522 601 33,000  Level Denver Center
11:37 37.3536 -109.4011 74° East 523 602 33,000  Level Denver Center
11:38 37.3972 -109.2036 74° East 523 602 33,000  Level Denver Center
11:39 37.4347 -109.0331 74° East 526 605 33,000  Level Denver Center
11:40 37.4789 -108.8356 74° East 525 604 33,000  Level Denver Center
11:41 37.5147 -108.6667 75° East 522 601 33,000  Level Denver Center
11:42 37.5589 -108.4667 74° East 528 608 33,000  Level Denver Center
11:43 37.5950 -108.2967 75° East 525 604 33,000  Level Denver Center
11:44 37.6372 -108.0983 75° East 523 602 33,000  Level Denver Center
11:45 37.6731 -107.9272 75° East 525 604 33,000  Level Denver Center
11:46 37.7086 -107.7567 75° East 525 604 33,000  Level Denver Center
11:47 37.7497 -107.5556 75° East 530 610 33,000  Level Denver Center
11:48 37.7856 -107.3850 75° East 528 608 33,000 -300 Level Denver Center
11:49 37.8264 -107.1822 76° East 532 612 32,400 -540 Descending Denver Center
11:50 37.8553 -107.0403 76° East 544 626 31,900 -780 Descending Denver Center
11:51 37.9028 -106.8011 76° East 550 633 30,900 -960 Descending Denver Center
11:52 37.9453 -106.5897 76° East 555 639 30,000 -1,380 Descending Denver Center
11:53 37.9825 -106.4039 76° East 541 623 28,100 -1,440 Descending Denver Center
11:54 38.0150 -106.2289 77° East 535 616 27,000 -540 Descending Denver Center
11:55 38.0514 -106.0372 76° East 501 577 27,000  Level Denver Center
11:56 38.0836 -105.8692 76° East 490 564 27,000  Level Denver Center
11:57 38.1167 -105.6950 76° East 502 578 27,000 -480 Level Denver Center
11:58 38.1503 -105.5181 76° East 510 587 26,100 -1,200 Descending Denver Center
11:59 38.1844 -105.3356 77° East 521 600 24,600 -2,280 Descending Denver Center
12:00 38.2169 -105.1489 77° East 531 611 21,400 -3,060 Descending Denver Center
12:01 38.2481 -104.9736 77° East 524 603 18,300 -3,060 Descending Denver Center
12:03 38.2814 -104.7942 77° East 484 557 15,100 -2,100 Descending Denver Center
12:04 38.3247 -104.6753 65° Northeast 423 487 14,000 -1,260 Descending Denver Center
12:05 38.4086 -104.6406 18° North 350 403 12,500 -1,500 Descending Denver Center
12:06 38.4911 -104.6444 358° North 321 369 11,000 -780 Descending Denver Center
12:07 38.5425 -104.7067 317° Northwest 292 336 10,900 -120 Descending Denver Center